createdAt,value
2022-12-03T00:00:49.529Z,0.00
2022-12-03T00:01:49.561Z,0.00
2022-12-03T00:02:49.622Z,0.00
2022-12-03T00:03:49.648Z,0.00
2022-12-03T00:04:49.655Z,0.00
2022-12-03T00:05:49.547Z,0.00
2022-12-03T00:06:49.468Z,0.00
2022-12-03T00:07:49.538Z,0.00
2022-12-03T00:08:49.440Z,0.00
2022-12-03T00:09:49.477Z,0.00
2022-12-03T00:10:49.409Z,0.00
2022-12-03T00:11:49.402Z,0.00
2022-12-03T00:12:49.382Z,0.00
2022-12-03T00:13:49.399Z,0.00
2022-12-03T00:14:49.414Z,0.00
2022-12-03T00:15:49.422Z,0.00
2022-12-03T00:16:49.370Z,0.00
2022-12-03T00:17:49.357Z,0.00
2022-12-03T00:18:49.321Z,0.00
2022-12-03T00:19:49.359Z,0.00
2022-12-03T00:20:49.315Z,0.00
2022-12-03T00:21:49.290Z,0.00
2022-12-03T00:22:49.280Z,0.00
2022-12-03T00:23:49.288Z,0.00
2022-12-03T00:24:49.329Z,0.00
2022-12-03T00:25:49.258Z,0.00
2022-12-03T00:26:49.240Z,0.00
2022-12-03T00:27:49.223Z,0.00
2022-12-03T00:28:49.227Z,0.00
2022-12-03T00:29:49.207Z,0.00
2022-12-03T00:30:49.295Z,0.00
2022-12-03T00:31:49.218Z,0.00
2022-12-03T00:32:49.177Z,0.00
2022-12-03T00:33:49.159Z,0.00
2022-12-03T00:34:49.136Z,0.00
2022-12-03T00:35:49.196Z,0.00
2022-12-03T00:36:49.124Z,0.00
2022-12-03T00:37:49.125Z,0.00
2022-12-03T00:38:49.106Z,0.00
2022-12-03T00:39:49.110Z,0.00
2022-12-03T00:40:49.102Z,0.00
2022-12-03T00:41:49.065Z,0.00
2022-12-03T00:42:49.046Z,0.00
2022-12-03T00:43:49.083Z,0.00
2022-12-03T00:44:49.060Z,0.00
2022-12-03T00:45:49.065Z,0.00
2022-12-03T00:46:49.103Z,0.00
2022-12-03T00:47:48.997Z,0.00
2022-12-03T00:48:49.002Z,0.00
2022-12-03T00:49:48.978Z,0.00
2022-12-03T00:50:49.014Z,0.00
2022-12-03T00:51:48.975Z,0.00
2022-12-03T00:52:48.938Z,0.00
2022-12-03T00:53:48.946Z,0.00
2022-12-03T00:54:48.925Z,0.00
2022-12-03T00:55:48.959Z,0.00
2022-12-03T00:56:48.897Z,0.00
2022-12-03T00:57:48.893Z,0.00
2022-12-03T00:58:48.888Z,0.00
2022-12-03T00:59:48.869Z,0.00
2022-12-03T01:00:48.888Z,0.00
2022-12-03T01:01:48.926Z,0.00
2022-12-03T01:02:48.841Z,0.00
2022-12-03T01:03:48.835Z,0.00
2022-12-03T01:04:48.887Z,0.00
2022-12-03T01:05:48.857Z,0.00
2022-12-03T01:06:48.794Z,0.00
2022-12-03T01:07:48.865Z,0.00
2022-12-03T01:08:48.759Z,0.00
2022-12-03T01:09:48.809Z,0.00
2022-12-03T01:10:48.798Z,0.00
2022-12-03T01:11:48.723Z,0.00
2022-12-03T01:12:48.716Z,0.00
2022-12-03T01:13:48.734Z,0.00
2022-12-03T01:14:48.682Z,0.00
2022-12-03T01:15:48.785Z,0.00
2022-12-03T01:16:48.682Z,0.00
2022-12-03T01:17:48.679Z,0.00
2022-12-03T01:18:48.645Z,0.00
2022-12-03T01:19:48.804Z,0.00
2022-12-03T01:20:48.681Z,0.00
2022-12-03T01:21:48.619Z,0.00
2022-12-03T01:22:48.689Z,0.00
2022-12-03T01:23:48.609Z,0.00
2022-12-03T01:24:48.574Z,0.00
2022-12-03T01:25:48.621Z,0.00
2022-12-03T01:26:48.561Z,0.00
2022-12-03T01:27:48.572Z,0.00
2022-12-03T01:28:48.537Z,0.00
2022-12-03T01:29:48.579Z,0.00
2022-12-03T01:30:48.593Z,0.00
2022-12-03T01:31:48.601Z,0.00
2022-12-03T01:32:48.491Z,0.00
2022-12-03T01:33:48.493Z,0.00
2022-12-03T01:34:48.487Z,0.00
2022-12-03T01:35:48.489Z,0.00
2022-12-03T01:36:48.477Z,0.00
2022-12-03T01:37:48.461Z,0.00
2022-12-03T01:38:48.445Z,0.00
2022-12-03T01:39:48.431Z,0.00
2022-12-03T01:40:48.459Z,0.00
2022-12-03T01:41:48.393Z,0.00
2022-12-03T01:42:48.367Z,0.00
2022-12-03T01:43:48.371Z,0.00
2022-12-03T01:44:48.354Z,0.00
2022-12-03T01:45:48.416Z,0.00
2022-12-03T01:46:48.357Z,0.00
2022-12-03T01:47:48.322Z,0.00
2022-12-03T01:48:48.330Z,0.00
2022-12-03T01:49:48.310Z,0.00
2022-12-03T01:50:48.319Z,0.00
2022-12-03T01:51:48.283Z,0.00
2022-12-03T01:52:48.293Z,0.00
2022-12-03T01:53:48.259Z,0.00
2022-12-03T01:54:48.263Z,0.00
2022-12-03T01:55:49.053Z,0.00
2022-12-03T01:56:48.225Z,0.00
2022-12-03T01:57:48.235Z,0.00
2022-12-03T01:58:48.205Z,0.00
2022-12-03T01:59:48.217Z,0.00
2022-12-03T02:00:48.237Z,0.00
2022-12-03T02:01:48.242Z,0.00
2022-12-03T02:02:48.155Z,0.00
2022-12-03T02:03:48.222Z,0.00
2022-12-03T02:04:48.146Z,0.00
2022-12-03T02:05:48.169Z,0.00
2022-12-03T02:06:48.132Z,0.00
2022-12-03T02:07:48.168Z,0.00
2022-12-03T02:08:48.108Z,0.00
2022-12-03T02:09:48.094Z,0.00
2022-12-03T02:10:48.118Z,0.00
2022-12-03T02:11:48.055Z,0.00
2022-12-03T02:12:48.026Z,0.00
2022-12-03T02:13:48.028Z,0.00
2022-12-03T02:14:48.021Z,0.00
2022-12-03T02:15:48.113Z,0.00
2022-12-03T02:16:48.032Z,0.00
2022-12-03T02:17:48.002Z,0.00
2022-12-03T02:18:47.991Z,0.00
2022-12-03T02:19:47.974Z,0.00
2022-12-03T02:20:48.002Z,0.00
2022-12-03T02:21:47.943Z,0.00
2022-12-03T02:22:47.965Z,0.00
2022-12-03T02:23:47.929Z,0.00
2022-12-03T02:24:47.928Z,0.00
2022-12-03T02:25:47.912Z,0.00
2022-12-03T02:26:47.926Z,0.00
2022-12-03T02:27:47.887Z,0.00
2022-12-03T02:28:47.870Z,0.00
2022-12-03T02:29:47.877Z,0.00
2022-12-03T02:30:47.863Z,0.00
2022-12-03T02:31:47.944Z,0.00
2022-12-03T02:32:47.826Z,0.00
2022-12-03T02:33:47.837Z,0.00
2022-12-03T02:34:47.796Z,0.00
2022-12-03T02:35:47.812Z,0.00
2022-12-03T02:36:47.835Z,0.00
2022-12-03T02:37:47.767Z,0.00
2022-12-03T02:38:47.780Z,0.00
2022-12-03T02:39:47.761Z,0.00
2022-12-03T02:40:47.748Z,0.00
2022-12-03T02:41:47.769Z,0.00
2022-12-03T02:42:47.716Z,0.00
2022-12-03T02:43:47.704Z,0.00
2022-12-03T02:44:47.673Z,0.00
2022-12-03T02:45:47.706Z,0.00
2022-12-03T02:46:47.791Z,0.00
2022-12-03T02:47:47.661Z,0.00
2022-12-03T02:48:47.654Z,0.00
2022-12-03T02:49:47.640Z,0.00
2022-12-03T02:50:47.597Z,0.00
2022-12-03T02:51:47.671Z,0.00
2022-12-03T02:52:47.622Z,0.00
2022-12-03T02:53:47.605Z,0.00
2022-12-03T02:54:47.567Z,0.00
2022-12-03T02:55:47.580Z,0.00
2022-12-03T02:56:47.565Z,0.00
2022-12-03T02:57:47.590Z,0.00
2022-12-03T02:58:47.535Z,0.00
2022-12-03T02:59:47.520Z,0.00
2022-12-03T03:00:47.597Z,0.00
2022-12-03T03:01:47.575Z,0.00
2022-12-03T03:02:47.575Z,0.00
2022-12-03T03:03:47.495Z,0.00
2022-12-03T03:04:47.466Z,0.00
2022-12-03T03:05:47.464Z,0.00
2022-12-03T03:06:47.446Z,0.00
2022-12-03T03:07:47.507Z,0.00
2022-12-03T03:08:47.418Z,0.00
2022-12-03T03:09:47.422Z,0.00
2022-12-03T03:10:47.418Z,0.00
2022-12-03T03:11:47.389Z,0.00
2022-12-03T03:12:47.416Z,0.00
2022-12-03T03:13:47.367Z,0.00
2022-12-03T03:14:47.349Z,0.00
2022-12-03T03:15:47.338Z,0.00
2022-12-03T03:16:47.415Z,0.00
2022-12-03T03:17:47.369Z,0.00
2022-12-03T03:18:47.334Z,0.00
2022-12-03T03:19:47.314Z,0.00
2022-12-03T03:20:47.289Z,0.00
2022-12-03T03:21:47.292Z,0.00
2022-12-03T03:22:47.315Z,0.00
2022-12-03T03:23:47.256Z,0.00
2022-12-03T03:24:47.256Z,0.00
2022-12-03T03:25:47.247Z,0.00
2022-12-03T03:26:47.231Z,0.00
2022-12-03T03:27:47.212Z,0.00
2022-12-03T03:28:47.260Z,0.00
2022-12-03T03:29:47.197Z,0.00
2022-12-03T03:30:47.195Z,0.00
2022-12-03T03:31:47.226Z,0.00
2022-12-03T03:32:47.170Z,0.00
2022-12-03T03:33:47.164Z,0.00
2022-12-03T03:34:47.149Z,0.00
2022-12-03T03:35:47.117Z,0.00
2022-12-03T03:36:47.133Z,0.00
2022-12-03T03:37:47.101Z,0.00
2022-12-03T03:38:47.133Z,0.00
2022-12-03T03:39:47.079Z,0.00
2022-12-03T03:40:47.066Z,0.00
2022-12-03T03:41:47.060Z,0.00
2022-12-03T03:42:47.042Z,0.00
2022-12-03T03:43:47.062Z,0.00
2022-12-03T03:44:47.017Z,0.00
2022-12-03T03:45:47.079Z,0.00
2022-12-03T03:46:46.999Z,0.00
2022-12-03T03:47:47.005Z,0.00
2022-12-03T03:48:47.017Z,0.00
2022-12-03T03:49:46.970Z,0.00
2022-12-03T03:50:46.976Z,0.00
2022-12-03T03:51:46.963Z,0.00
2022-12-03T03:52:46.952Z,0.00
2022-12-03T03:53:46.969Z,0.00
2022-12-03T03:54:46.901Z,0.00
2022-12-03T03:55:46.898Z,0.00
2022-12-03T03:56:46.898Z,0.00
2022-12-03T03:57:46.885Z,0.00
2022-12-03T03:58:46.926Z,0.00
2022-12-03T03:59:46.873Z,0.00
2022-12-03T04:00:46.887Z,0.00
2022-12-03T04:01:46.946Z,0.00
2022-12-03T04:02:46.842Z,0.00
2022-12-03T04:03:46.919Z,0.00
2022-12-03T04:04:46.807Z,0.00
2022-12-03T04:05:46.776Z,0.00
2022-12-03T04:06:46.810Z,0.00
2022-12-03T04:07:46.801Z,0.00
2022-12-03T04:08:46.805Z,0.00
2022-12-03T04:09:46.748Z,0.00
2022-12-03T04:10:46.753Z,0.00
2022-12-03T04:11:46.727Z,0.00
2022-12-03T04:12:46.733Z,0.00
2022-12-03T04:13:46.723Z,0.00
2022-12-03T04:14:46.677Z,0.00
2022-12-03T04:15:46.681Z,0.00
2022-12-03T04:16:46.729Z,0.00
2022-12-03T04:17:46.671Z,0.00
2022-12-03T04:18:46.707Z,0.00
2022-12-03T04:19:46.651Z,0.00
2022-12-03T04:20:46.619Z,0.00
2022-12-03T04:21:46.651Z,0.00
2022-12-03T04:22:46.624Z,0.00
2022-12-03T04:23:46.642Z,0.00
2022-12-03T04:24:46.613Z,0.00
2022-12-03T04:25:46.559Z,0.00
2022-12-03T04:26:46.561Z,0.00
2022-12-03T04:27:46.542Z,0.00
2022-12-03T04:28:46.548Z,0.00
2022-12-03T04:29:46.583Z,0.00
2022-12-03T04:30:46.571Z,0.00
2022-12-03T04:31:46.511Z,0.00
2022-12-03T04:32:46.505Z,0.00
2022-12-03T04:33:46.502Z,0.00
2022-12-03T04:34:46.513Z,0.00
2022-12-03T04:35:46.484Z,0.00
2022-12-03T04:36:46.454Z,0.00
2022-12-03T04:37:46.433Z,0.00
2022-12-03T04:38:46.422Z,0.00
2022-12-03T04:39:46.443Z,0.00
2022-12-03T04:40:46.411Z,0.00
2022-12-03T04:41:46.412Z,0.00
2022-12-03T04:42:46.386Z,0.00
2022-12-03T04:43:46.351Z,0.00
2022-12-03T04:44:46.387Z,0.00
2022-12-03T04:45:46.346Z,0.00
2022-12-03T04:46:46.337Z,0.00
2022-12-03T04:47:46.337Z,0.00
2022-12-03T04:48:46.346Z,0.00
2022-12-03T04:49:46.333Z,0.00
2022-12-03T04:50:46.311Z,0.00
2022-12-03T04:51:46.290Z,0.00
2022-12-03T04:52:46.288Z,0.00
2022-12-03T04:53:46.518Z,0.00
2022-12-03T04:54:46.296Z,0.00
2022-12-03T04:55:46.247Z,0.00
2022-12-03T04:56:46.228Z,0.00
2022-12-03T04:57:46.227Z,0.00
2022-12-03T04:58:46.206Z,0.00
2022-12-03T04:59:46.241Z,0.00
2022-12-03T05:00:46.180Z,0.00
2022-12-03T05:01:46.217Z,0.00
2022-12-03T05:02:46.245Z,0.00
2022-12-03T05:03:46.161Z,0.00
2022-12-03T05:04:46.209Z,0.00
2022-12-03T05:05:46.146Z,0.00
2022-12-03T05:06:46.122Z,0.00
2022-12-03T05:07:46.160Z,0.00
2022-12-03T05:08:46.102Z,0.00
2022-12-03T05:09:46.149Z,0.00
2022-12-03T05:10:46.090Z,0.00
2022-12-03T05:11:46.071Z,0.00
2022-12-03T05:12:46.063Z,0.00
2022-12-03T05:13:46.044Z,0.00
2022-12-03T05:14:46.058Z,0.00
2022-12-03T05:15:46.007Z,0.00
2022-12-03T05:16:46.041Z,0.00
2022-12-03T05:17:45.989Z,0.00
2022-12-03T05:18:46.018Z,0.00
2022-12-03T05:19:46.033Z,0.00
2022-12-03T05:20:52.917Z,0.00
2022-12-03T05:21:46.982Z,0.00
2022-12-03T05:22:45.942Z,0.00
2022-12-03T05:23:45.934Z,0.00
2022-12-03T05:24:45.981Z,0.00
2022-12-03T05:25:45.931Z,0.00
2022-12-03T05:26:45.901Z,0.00
2022-12-03T05:27:45.888Z,0.00
2022-12-03T05:28:45.876Z,0.00
2022-12-03T05:29:45.880Z,0.00
2022-12-03T05:30:45.965Z,0.00
2022-12-03T05:31:45.857Z,0.00
2022-12-03T05:32:45.844Z,0.00
2022-12-03T05:33:45.832Z,0.00
2022-12-03T05:34:45.831Z,0.00
2022-12-03T05:35:45.846Z,0.00
2022-12-03T05:36:45.808Z,0.00
2022-12-03T05:37:45.790Z,0.00
2022-12-03T05:38:45.790Z,0.00
2022-12-03T05:39:45.774Z,0.00
2022-12-03T05:40:45.785Z,0.00
2022-12-03T05:41:45.739Z,0.00
2022-12-03T05:42:45.748Z,0.00
2022-12-03T05:43:45.723Z,0.00
2022-12-03T05:44:45.705Z,0.00
2022-12-03T05:45:45.802Z,0.00
2022-12-03T05:46:45.781Z,0.00
2022-12-03T05:47:45.683Z,0.00
2022-12-03T05:48:45.695Z,0.00
2022-12-03T05:49:45.650Z,0.00
2022-12-03T05:50:45.698Z,0.00
2022-12-03T05:51:45.635Z,0.00
2022-12-03T05:52:45.635Z,0.00
2022-12-03T05:53:45.612Z,0.00
2022-12-03T05:54:45.599Z,0.00
2022-12-03T05:55:46.410Z,0.00
2022-12-03T05:56:45.577Z,0.00
2022-12-03T05:57:45.576Z,0.00
2022-12-03T05:58:45.556Z,0.00
2022-12-03T05:59:45.582Z,0.00
2022-12-03T06:00:45.590Z,0.00
2022-12-03T06:01:45.530Z,0.00
2022-12-03T06:02:45.657Z,0.00
2022-12-03T06:03:45.647Z,0.00
2022-12-03T06:04:45.522Z,0.00
2022-12-03T06:05:45.537Z,0.00
2022-12-03T06:06:45.491Z,0.00
2022-12-03T06:07:45.518Z,0.00
2022-12-03T06:08:45.460Z,0.00
2022-12-03T06:09:45.444Z,0.00
2022-12-03T06:10:45.472Z,0.00
2022-12-03T06:11:45.424Z,0.00
2022-12-03T06:12:45.404Z,0.00
2022-12-03T06:13:45.400Z,0.00
2022-12-03T06:14:45.394Z,0.00
2022-12-03T06:15:45.471Z,0.00
2022-12-03T06:16:45.442Z,0.00
2022-12-03T06:17:45.343Z,0.00
2022-12-03T06:18:45.342Z,0.00
2022-12-03T06:19:45.352Z,0.00
2022-12-03T06:20:45.386Z,0.00
2022-12-03T06:21:45.320Z,0.00
2022-12-03T06:22:45.301Z,4.00
2022-12-03T06:23:45.276Z,4.00
2022-12-03T06:24:45.291Z,4.00
2022-12-03T06:25:45.313Z,0.00
2022-12-03T06:26:45.268Z,4.00
2022-12-03T06:27:45.250Z,4.00
2022-12-03T06:28:45.243Z,4.00
2022-12-03T06:29:45.222Z,8.00
2022-12-03T06:30:45.342Z,4.00
2022-12-03T06:31:45.267Z,8.00
2022-12-03T06:32:45.179Z,8.00
2022-12-03T06:33:45.185Z,12.00
2022-12-03T06:34:45.160Z,8.00
2022-12-03T06:35:45.182Z,12.00
2022-12-03T06:36:45.139Z,12.00
2022-12-03T06:37:45.124Z,16.00
2022-12-03T06:38:45.123Z,16.00
2022-12-03T06:39:45.097Z,20.00
2022-12-03T06:40:45.131Z,24.00
2022-12-03T06:41:45.089Z,24.00
2022-12-03T06:42:45.093Z,28.00
2022-12-03T06:43:47.509Z,32.00
2022-12-03T06:44:45.077Z,36.00
2022-12-03T06:45:47.920Z,40.00
2022-12-03T06:46:45.099Z,40.00
2022-12-03T06:47:45.003Z,48.00
2022-12-03T06:48:45.003Z,56.00
2022-12-03T06:49:45.010Z,60.00
2022-12-03T06:50:45.033Z,64.00
2022-12-03T06:51:44.989Z,68.00
2022-12-03T06:52:44.972Z,68.00
2022-12-03T06:53:44.959Z,72.00
2022-12-03T06:54:44.938Z,84.00
2022-12-03T06:55:44.963Z,88.00
2022-12-03T06:56:45.675Z,92.00
2022-12-03T06:57:44.896Z,96.00
2022-12-03T06:58:44.889Z,104.00
2022-12-03T06:59:44.897Z,112.00
2022-12-03T07:00:44.913Z,116.00
2022-12-03T07:01:44.889Z,120.00
2022-12-03T07:02:44.904Z,124.00
2022-12-03T07:03:44.843Z,132.00
2022-12-03T07:04:46.612Z,140.00
2022-12-03T07:05:44.875Z,136.00
2022-12-03T07:06:44.825Z,136.00
2022-12-03T07:07:44.927Z,144.00
2022-12-03T07:08:44.808Z,148.00
2022-12-03T07:09:44.768Z,152.00
2022-12-03T07:10:44.797Z,152.00
2022-12-03T07:11:44.751Z,164.00
2022-12-03T07:12:44.761Z,164.00
2022-12-03T07:13:44.736Z,164.00
2022-12-03T07:14:44.722Z,172.00
2022-12-03T07:15:44.765Z,176.00
2022-12-03T07:16:44.768Z,184.00
2022-12-03T07:17:44.698Z,184.00
2022-12-03T07:18:44.667Z,196.00
2022-12-03T07:19:44.676Z,204.00
2022-12-03T07:20:44.704Z,204.00
2022-12-03T07:21:44.669Z,200.00
2022-12-03T07:22:44.632Z,216.00
2022-12-03T07:23:44.624Z,212.00
2022-12-03T07:24:44.631Z,228.00
2022-12-03T07:25:44.649Z,240.00
2022-12-03T07:26:44.594Z,240.00
2022-12-03T07:27:44.569Z,236.00
2022-12-03T07:28:44.577Z,260.00
2022-12-03T07:29:44.553Z,268.00
2022-12-03T07:30:44.582Z,276.00
2022-12-03T07:31:44.645Z,280.00
2022-12-03T07:32:44.560Z,280.00
2022-12-03T07:33:44.509Z,288.00
2022-12-03T07:34:44.490Z,284.00
2022-12-03T07:35:44.521Z,296.00
2022-12-03T07:36:44.476Z,304.00
2022-12-03T07:37:44.477Z,312.00
2022-12-03T07:38:44.446Z,300.00
2022-12-03T07:39:44.442Z,312.00
2022-12-03T07:40:44.505Z,316.00
2022-12-03T07:41:44.436Z,320.00
2022-12-03T07:42:44.421Z,308.00
2022-12-03T07:43:44.392Z,324.00
2022-12-03T07:44:44.365Z,332.00
2022-12-03T07:45:44.408Z,348.00
2022-12-03T07:46:44.473Z,356.00
2022-12-03T07:47:44.344Z,364.00
2022-12-03T07:48:44.345Z,372.00
2022-12-03T07:49:44.327Z,360.00
2022-12-03T07:50:44.357Z,380.00
2022-12-03T07:51:44.327Z,388.00
2022-12-03T07:52:44.286Z,384.00
2022-12-03T07:53:44.298Z,384.00
2022-12-03T07:54:44.275Z,408.00
2022-12-03T07:55:44.315Z,424.00
2022-12-03T07:56:44.248Z,444.00
2022-12-03T07:57:44.259Z,444.00
2022-12-03T07:58:44.228Z,452.00
2022-12-03T07:59:44.229Z,464.00
2022-12-03T08:00:44.291Z,468.00
2022-12-03T08:01:44.246Z,468.00
2022-12-03T08:02:44.247Z,476.00
2022-12-03T08:03:44.168Z,456.00
2022-12-03T08:04:44.153Z,468.00
2022-12-03T08:05:44.204Z,436.00
2022-12-03T08:06:44.144Z,452.00
2022-12-03T08:07:44.157Z,472.00
2022-12-03T08:08:44.097Z,504.00
2022-12-03T08:09:44.115Z,484.00
2022-12-03T08:10:44.135Z,524.00
2022-12-03T08:11:44.084Z,536.00
2022-12-03T08:12:44.060Z,580.00
2022-12-03T08:13:44.084Z,596.00
2022-12-03T08:14:44.025Z,652.00
2022-12-03T08:15:44.070Z,632.00
2022-12-03T08:16:44.058Z,664.00
2022-12-03T08:17:44.047Z,660.00
2022-12-03T08:18:44.030Z,716.00
2022-12-03T08:19:44.001Z,704.00
2022-12-03T08:20:44.011Z,712.00
2022-12-03T08:21:43.961Z,732.00
2022-12-03T08:22:43.979Z,760.00
2022-12-03T08:23:43.956Z,776.00
2022-12-03T08:24:43.947Z,740.00
2022-12-03T08:25:43.970Z,804.00
2022-12-03T08:26:43.924Z,816.00
2022-12-03T08:27:43.901Z,788.00
2022-12-03T08:28:43.901Z,820.00
2022-12-03T08:29:43.897Z,828.00
2022-12-03T08:30:43.915Z,816.00
2022-12-03T08:31:43.982Z,824.00
2022-12-03T08:32:43.843Z,868.00
2022-12-03T08:33:43.839Z,880.00
2022-12-03T08:34:43.824Z,952.00
2022-12-03T08:35:43.854Z,932.00
2022-12-03T08:36:43.818Z,996.00
2022-12-03T08:37:43.794Z,972.00
2022-12-03T08:38:43.779Z,1092.00
2022-12-03T08:39:43.783Z,1068.00
2022-12-03T08:40:43.793Z,1088.00
2022-12-03T08:41:43.745Z,1096.00
2022-12-03T08:42:43.733Z,1104.00
2022-12-03T08:43:43.750Z,1136.00
2022-12-03T08:44:43.700Z,1148.00
2022-12-03T08:45:43.764Z,1176.00
2022-12-03T08:46:43.678Z,1176.00
2022-12-03T08:47:43.669Z,1212.00
2022-12-03T08:48:48.363Z,1244.00
2022-12-03T08:49:44.650Z,1248.00
2022-12-03T08:50:43.706Z,1216.00
2022-12-03T08:51:43.629Z,1208.00
2022-12-03T08:52:43.641Z,1232.00
2022-12-03T08:53:43.619Z,1260.00
2022-12-03T08:54:43.601Z,1340.00
2022-12-03T08:55:43.626Z,1312.00
2022-12-03T08:56:43.587Z,1336.00
2022-12-03T08:57:43.577Z,1360.00
2022-12-03T08:58:43.555Z,1356.00
2022-12-03T08:59:45.587Z,1324.00
2022-12-03T09:00:43.617Z,1244.00
2022-12-03T09:01:43.581Z,1296.00
2022-12-03T09:02:43.515Z,1376.00
2022-12-03T09:03:43.590Z,1260.00
2022-12-03T09:04:43.518Z,1308.00
2022-12-03T09:05:43.509Z,1280.00
2022-12-03T09:06:43.478Z,1312.00
2022-12-03T09:07:43.550Z,1304.00
2022-12-03T09:08:43.457Z,1404.00
2022-12-03T09:09:43.436Z,1520.00
2022-12-03T09:10:43.468Z,1468.00
2022-12-03T09:11:43.409Z,1488.00
2022-12-03T09:12:43.416Z,1456.00
2022-12-03T09:13:43.391Z,1444.00
2022-12-03T09:14:43.385Z,1468.00
2022-12-03T09:15:43.465Z,1528.00
2022-12-03T09:16:43.380Z,1488.00
2022-12-03T09:17:43.330Z,1568.00
2022-12-03T09:18:43.333Z,1600.00
2022-12-03T09:19:46.076Z,1548.00
2022-12-03T09:20:43.356Z,1572.00
2022-12-03T09:21:43.311Z,1640.00
2022-12-03T09:22:43.317Z,1688.00
2022-12-03T09:23:43.301Z,1648.00
2022-12-03T09:24:43.276Z,1640.00
2022-12-03T09:25:43.304Z,1688.00
2022-12-03T09:26:43.248Z,1632.00
2022-12-03T09:27:43.233Z,1708.00
2022-12-03T09:28:43.227Z,1680.00
2022-12-03T09:29:43.214Z,1744.00
2022-12-03T09:30:43.237Z,1592.00
2022-12-03T09:31:43.255Z,1632.00
2022-12-03T09:32:43.176Z,1796.00
2022-12-03T09:33:43.208Z,1892.00
2022-12-03T09:34:43.143Z,1828.00
2022-12-03T09:35:43.187Z,1816.00
2022-12-03T09:36:43.128Z,1920.00
2022-12-03T09:37:43.129Z,1944.00
2022-12-03T09:38:46.227Z,1856.00
2022-12-03T09:39:44.094Z,1792.00
2022-12-03T09:40:43.137Z,1768.00
2022-12-03T09:41:43.080Z,1760.00
2022-12-03T09:42:43.093Z,1804.00
2022-12-03T09:44:03.436Z,1956.00
2022-12-03T09:44:44.046Z,2076.00
2022-12-03T09:45:43.196Z,2056.00
2022-12-03T09:46:43.001Z,2152.00
2022-12-03T09:47:42.987Z,2100.00
2022-12-03T09:48:42.994Z,2128.00
2022-12-03T09:49:42.990Z,1984.00
2022-12-03T09:50:43.008Z,2096.00
2022-12-03T09:51:42.988Z,2032.00
2022-12-03T09:52:42.944Z,2028.00
2022-12-03T09:53:42.948Z,1976.00
2022-12-03T09:54:47.237Z,1860.00
2022-12-03T09:55:42.973Z,1848.00
2022-12-03T09:56:42.905Z,1784.00
2022-12-03T09:57:42.908Z,1672.00
2022-12-03T09:58:42.910Z,1612.00
2022-12-03T09:59:42.876Z,1748.00
2022-12-03T10:00:42.899Z,1728.00
2022-12-03T10:01:42.931Z,1756.00
2022-12-03T10:02:42.864Z,1872.00
2022-12-03T10:03:42.841Z,1804.00
2022-12-03T10:04:42.916Z,1884.00
2022-12-03T10:05:47.890Z,2064.00
2022-12-03T10:06:46.107Z,2040.00
2022-12-03T10:07:42.856Z,1972.00
2022-12-03T10:08:42.785Z,1984.00
2022-12-03T10:09:42.779Z,2060.00
2022-12-03T10:10:42.755Z,2064.00
2022-12-03T10:11:42.777Z,2112.00
2022-12-03T10:12:42.739Z,2200.00
2022-12-03T10:13:42.736Z,2164.00
2022-12-03T10:14:42.734Z,2188.00
2022-12-03T10:15:42.704Z,2108.00
2022-12-03T10:16:42.787Z,2124.00
2022-12-03T10:17:42.670Z,2108.00
2022-12-03T10:18:42.656Z,2068.00
2022-12-03T10:19:42.675Z,2036.00
2022-12-03T10:20:42.654Z,2092.00
2022-12-03T10:21:42.690Z,2148.00
2022-12-03T10:22:42.649Z,2104.00
2022-12-03T10:23:42.584Z,2092.00
2022-12-03T10:24:42.627Z,2108.00
2022-12-03T10:25:42.594Z,2040.00
2022-12-03T10:26:42.610Z,2220.00
2022-12-03T10:27:42.582Z,2232.00
2022-12-03T10:28:42.546Z,2288.00
2022-12-03T10:29:42.557Z,2344.00
2022-12-03T10:30:42.593Z,2452.00
2022-12-03T10:31:42.568Z,2452.00
2022-12-03T10:32:42.517Z,2500.00
2022-12-03T10:33:42.502Z,2544.00
2022-12-03T10:34:42.476Z,2440.00
2022-12-03T10:35:42.469Z,2408.00
2022-12-03T10:36:42.488Z,2508.00
2022-12-03T10:37:42.453Z,2648.00
2022-12-03T10:38:42.461Z,2680.00
2022-12-03T10:39:42.443Z,2668.00
2022-12-03T10:40:42.448Z,2800.00
2022-12-03T10:41:42.436Z,2848.00
2022-12-03T10:42:42.390Z,2840.00
2022-12-03T10:43:42.399Z,2936.00
2022-12-03T10:44:42.366Z,2976.00
2022-12-03T10:45:42.403Z,2972.00
2022-12-03T10:46:42.540Z,2916.00
2022-12-03T10:47:42.421Z,2876.00
2022-12-03T10:48:42.329Z,3024.00
2022-12-03T10:49:42.321Z,3008.00
2022-12-03T10:50:42.312Z,2904.00
2022-12-03T10:51:42.354Z,2872.00
2022-12-03T10:52:42.288Z,3040.00
2022-12-03T10:53:42.292Z,3012.00
2022-12-03T10:54:42.278Z,2880.00
2022-12-03T10:55:42.257Z,2776.00
2022-12-03T10:56:42.303Z,2708.00
2022-12-03T10:57:45.530Z,2744.00
2022-12-03T10:58:42.207Z,2640.00
2022-12-03T10:59:42.199Z,2672.00
2022-12-03T11:00:42.198Z,2864.00
2022-12-03T11:01:42.263Z,3012.00
2022-12-03T11:02:42.218Z,3000.00
2022-12-03T11:03:42.242Z,3060.00
2022-12-03T11:04:42.166Z,2896.00
2022-12-03T11:05:42.159Z,2896.00
2022-12-03T11:06:42.129Z,2964.00
2022-12-03T11:07:42.217Z,2876.00
2022-12-03T11:08:42.111Z,2904.00
2022-12-03T11:09:42.093Z,2868.00
2022-12-03T11:10:42.084Z,2784.00
2022-12-03T11:11:42.104Z,2612.00
2022-12-03T11:12:42.101Z,2564.00
2022-12-03T11:13:42.046Z,2504.00
2022-12-03T11:14:42.040Z,2436.00
2022-12-03T11:15:42.083Z,2360.00
2022-12-03T11:16:42.044Z,2296.00
2022-12-03T11:17:42.029Z,2208.00
2022-12-03T11:18:41.980Z,2224.00
2022-12-03T11:19:41.976Z,2244.00
2022-12-03T11:20:41.968Z,2468.00
2022-12-03T11:21:44.353Z,2568.00
2022-12-03T11:22:42.006Z,2384.00
2022-12-03T11:23:41.936Z,2316.00
2022-12-03T11:24:41.938Z,2260.00
2022-12-03T11:25:41.921Z,2388.00
2022-12-03T11:26:41.917Z,2424.00
2022-12-03T11:27:41.965Z,2420.00
2022-12-03T11:28:41.888Z,2344.00
2022-12-03T11:29:41.852Z,2312.00
2022-12-03T11:30:41.886Z,2396.00
2022-12-03T11:31:41.952Z,2540.00
2022-12-03T11:32:41.891Z,2608.00
2022-12-03T11:33:41.849Z,2620.00
2022-12-03T11:34:41.804Z,2652.00
2022-12-03T11:35:41.817Z,2732.00
2022-12-03T11:37:00.820Z,2808.00
2022-12-03T11:37:42.842Z,2820.00
2022-12-03T11:38:42.632Z,2900.00
2022-12-03T11:39:41.765Z,2956.00
2022-12-03T11:40:41.759Z,2868.00
2022-12-03T11:41:41.743Z,2900.00
2022-12-03T11:42:41.747Z,2908.00
2022-12-03T11:43:41.756Z,2856.00
2022-12-03T11:44:41.738Z,2840.00
2022-12-03T11:45:41.712Z,2840.00
2022-12-03T11:46:41.774Z,2876.00
2022-12-03T11:47:41.667Z,2892.00
2022-12-03T11:48:41.694Z,2896.00
2022-12-03T11:49:41.641Z,2860.00
2022-12-03T11:50:41.636Z,2968.00
2022-12-03T11:51:41.650Z,3040.00
2022-12-03T11:52:41.618Z,2932.00
2022-12-03T11:53:41.633Z,2824.00
2022-12-03T11:54:41.596Z,2832.00
2022-12-03T11:55:41.581Z,2876.00
2022-12-03T11:56:41.597Z,2764.00
2022-12-03T11:57:41.546Z,2960.00
2022-12-03T11:58:41.579Z,3092.00
2022-12-03T11:59:41.544Z,3156.00
2022-12-03T12:00:41.546Z,3280.00
2022-12-03T12:01:41.531Z,3420.00
2022-12-03T12:02:41.553Z,3496.00
2022-12-03T12:03:41.667Z,3488.00
2022-12-03T12:04:41.555Z,3568.00
2022-12-03T12:05:41.472Z,3812.00
2022-12-03T12:06:42.471Z,3856.00
2022-12-03T12:07:41.478Z,3872.00
2022-12-03T12:08:41.492Z,4024.00
2022-12-03T12:09:41.427Z,4100.00
2022-12-03T12:10:41.436Z,4476.00
2022-12-03T12:11:41.499Z,4680.00
2022-12-03T12:12:44.405Z,4736.00
2022-12-03T12:13:42.445Z,5032.00
2022-12-03T12:14:41.378Z,5032.00
2022-12-03T12:15:41.350Z,5140.00
2022-12-03T12:16:41.483Z,5164.00
2022-12-03T12:17:41.320Z,5136.00
2022-12-03T12:18:41.354Z,5068.00
2022-12-03T12:19:41.371Z,4980.00
2022-12-03T12:20:41.286Z,4980.00
2022-12-03T12:21:41.396Z,4748.00
2022-12-03T12:22:41.293Z,4516.00
2022-12-03T12:23:41.303Z,4404.00
2022-12-03T12:24:41.286Z,4216.00
2022-12-03T12:25:41.259Z,4052.00
2022-12-03T12:26:41.249Z,4208.00
2022-12-03T12:27:41.218Z,4084.00
2022-12-03T12:28:41.218Z,4000.00
2022-12-03T12:29:41.258Z,3752.00
2022-12-03T12:30:41.179Z,3456.00
2022-12-03T12:31:41.298Z,3236.00
2022-12-03T12:32:41.189Z,2936.00
2022-12-03T12:33:41.156Z,2720.00
2022-12-03T12:34:41.183Z,2652.00
2022-12-03T12:35:41.134Z,2696.00
2022-12-03T12:36:41.109Z,2548.00
2022-12-03T12:37:46.312Z,2448.00
2022-12-03T12:38:42.092Z,2308.00
2022-12-03T12:39:41.125Z,2392.00
2022-12-03T12:40:41.057Z,2388.00
2022-12-03T12:41:41.060Z,2484.00
2022-12-03T12:42:41.059Z,2536.00
2022-12-03T12:43:41.038Z,2440.00
2022-12-03T12:44:41.062Z,2344.00
2022-12-03T12:45:41.016Z,2268.00
2022-12-03T12:46:47.594Z,2276.00